sensor_id;sensor_type;location;lat;lon;timestamp;P1;durP1;ratioP1;P2;durP2;ratioP2
20411;SDS011;10365;52.578;8.138;2023-03-11T00:01:04;8.20;;;3.00;;
20411;SDS011;10365;52.578;8.138;2023-03-11T00:03:30;12.57;;;3.33;;
20411;SDS011;10365;52.578;8.138;2023-03-11T00:05:55;9.63;;;3.58;;
20411;SDS011;10365;52.578;8.138;2023-03-11T00:08:23;10.75;;;3.90;;
20411;SDS011;10365;52.578;8.138;2023-03-11T00:10:53;9.63;;;3.00;;
20411;SDS011;10365;52.578;8.138;2023-03-11T00:13:19;9.20;;;3.03;;
20411;SDS011;10365;52.578;8.138;2023-03-11T00:15:46;10.98;;;3.88;;
20411;SDS011;10365;52.578;8.138;2023-03-11T00:18:12;8.10;;;3.30;;
20411;SDS011;10365;52.578;8.138;2023-03-11T00:20:38;7.18;;;3.58;;
20411;SDS011;10365;52.578;8.138;2023-03-11T00:23:05;12.15;;;3.75;;
20411;SDS011;10365;52.578;8.138;2023-03-11T00:25:31;10.70;;;3.40;;
20411;SDS011;10365;52.578;8.138;2023-03-11T00:27:57;7.85;;;3.53;;
20411;SDS011;10365;52.578;8.138;2023-03-11T00:30:22;12.27;;;4.00;;
20411;SDS011;10365;52.578;8.138;2023-03-11T00:32:49;10.15;;;4.03;;
20411;SDS011;10365;52.578;8.138;2023-03-11T00:35:16;14.43;;;4.05;;
20411;SDS011;10365;52.578;8.138;2023-03-11T00:37:41;8.90;;;4.05;;
20411;SDS011;10365;52.578;8.138;2023-03-11T00:40:11;6.32;;;3.53;;
20411;SDS011;10365;52.578;8.138;2023-03-11T00:42:36;8.10;;;3.95;;
20411;SDS011;10365;52.578;8.138;2023-03-11T00:45:02;7.95;;;4.07;;
20411;SDS011;10365;52.578;8.138;2023-03-11T00:47:28;9.02;;;4.03;;
20411;SDS011;10365;52.578;8.138;2023-03-11T00:49:53;10.38;;;3.88;;
20411;SDS011;10365;52.578;8.138;2023-03-11T00:52:18;13.60;;;4.30;;
20411;SDS011;10365;52.578;8.138;2023-03-11T00:54:44;10.30;;;3.47;;
20411;SDS011;10365;52.578;8.138;2023-03-11T00:57:11;12.65;;;3.53;;
20411;SDS011;10365;52.578;8.138;2023-03-11T00:59:36;9.02;;;4.03;;
20411;SDS011;10365;52.578;8.138;2023-03-11T01:02:01;10.48;;;3.88;;
20411;SDS011;10365;52.578;8.138;2023-03-11T01:04:27;11.70;;;3.72;;
20411;SDS011;10365;52.578;8.138;2023-03-11T01:06:52;7.60;;;3.30;;
20411;SDS011;10365;52.578;8.138;2023-03-11T01:09:18;11.88;;;4.32;;
20411;SDS011;10365;52.578;8.138;2023-03-11T01:11:44;9.43;;;3.45;;
20411;SDS011;10365;52.578;8.138;2023-03-11T01:14:09;11.13;;;3.70;;
20411;SDS011;10365;52.578;8.138;2023-03-11T01:16:35;10.73;;;3.45;;
20411;SDS011;10365;52.578;8.138;2023-03-11T01:19:01;8.50;;;3.30;;
20411;SDS011;10365;52.578;8.138;2023-03-11T01:21:26;7.88;;;2.85;;
20411;SDS011;10365;52.578;8.138;2023-03-11T01:23:52;5.80;;;3.15;;
20411;SDS011;10365;52.578;8.138;2023-03-11T01:26:17;7.78;;;3.70;;
20411;SDS011;10365;52.578;8.138;2023-03-11T01:28:42;8.77;;;3.47;;
20411;SDS011;10365;52.578;8.138;2023-03-11T01:31:08;6.03;;;3.20;;
20411;SDS011;10365;52.578;8.138;2023-03-11T01:33:34;12.25;;;3.40;;
20411;SDS011;10365;52.578;8.138;2023-03-11T01:35:59;8.98;;;3.70;;
20411;SDS011;10365;52.578;8.138;2023-03-11T01:38:26;6.93;;;3.13;;
20411;SDS011;10365;52.578;8.138;2023-03-11T01:40:51;8.38;;;2.95;;
20411;SDS011;10365;52.578;8.138;2023-03-11T01:46:16;8.55;;;3.47;;
20411;SDS011;10365;52.578;8.138;2023-03-11T01:48:50;7.40;;;3.60;;
20411;SDS011;10365;52.578;8.138;2023-03-11T01:51:16;6.68;;;3.28;;
20411;SDS011;10365;52.578;8.138;2023-03-11T01:53:43;8.60;;;3.30;;
20411;SDS011;10365;52.578;8.138;2023-03-11T01:56:09;9.07;;;3.63;;
20411;SDS011;10365;52.578;8.138;2023-03-11T01:58:36;6.68;;;3.05;;
20411;SDS011;10365;52.578;8.138;2023-03-11T02:01:02;7.43;;;3.30;;
20411;SDS011;10365;52.578;8.138;2023-03-11T02:03:29;7.65;;;3.22;;
20411;SDS011;10365;52.578;8.138;2023-03-11T02:05:56;10.55;;;3.33;;
20411;SDS011;10365;52.578;8.138;2023-03-11T02:08:22;8.35;;;2.92;;
20411;SDS011;10365;52.578;8.138;2023-03-11T02:10:48;9.60;;;3.53;;
20411;SDS011;10365;52.578;8.138;2023-03-11T02:13:14;10.20;;;3.25;;
20411;SDS011;10365;52.578;8.138;2023-03-11T02:15:40;8.18;;;2.80;;
20411;SDS011;10365;52.578;8.138;2023-03-11T02:18:06;6.60;;;2.10;;
20411;SDS011;10365;52.578;8.138;2023-03-11T02:20:50;11.80;;;2.50;;
20411;SDS011;10365;52.578;8.138;2023-03-11T02:23:17;9.20;;;3.13;;
20411;SDS011;10365;52.578;8.138;2023-03-11T02:26:20;8.35;;;2.78;;
20411;SDS011;10365;52.578;8.138;2023-03-11T02:28:35;7.63;;;2.45;;
20411;SDS011;10365;52.578;8.138;2023-03-11T02:31:01;8.23;;;2.88;;
20411;SDS011;10365;52.578;8.138;2023-03-11T02:33:28;4.03;;;1.80;;
20411;SDS011;10365;52.578;8.138;2023-03-11T02:35:55;8.40;;;2.50;;
20411;SDS011;10365;52.578;8.138;2023-03-11T02:38:22;5.30;;;2.25;;
20411;SDS011;10365;52.578;8.138;2023-03-11T02:40:49;6.18;;;1.83;;
20411;SDS011;10365;52.578;8.138;2023-03-11T02:43:19;10.63;;;1.98;;
20411;SDS011;10365;52.578;8.138;2023-03-11T02:45:46;7.38;;;2.05;;
20411;SDS011;10365;52.578;8.138;2023-03-11T02:48:12;8.45;;;1.83;;
20411;SDS011;10365;52.578;8.138;2023-03-11T02:50:39;6.22;;;1.67;;
20411;SDS011;10365;52.578;8.138;2023-03-11T02:53:05;7.53;;;1.52;;
20411;SDS011;10365;52.578;8.138;2023-03-11T02:55:30;6.95;;;1.70;;
20411;SDS011;10365;52.578;8.138;2023-03-11T02:57:56;5.65;;;1.77;;
20411;SDS011;10365;52.578;8.138;2023-03-11T03:00:21;5.22;;;1.30;;
20411;SDS011;10365;52.578;8.138;2023-03-11T03:02:53;12.00;;;1.60;;
20411;SDS011;10365;52.578;8.138;2023-03-11T03:05:20;13.05;;;1.70;;
20411;SDS011;10365;52.578;8.138;2023-03-11T03:07:46;12.77;;;1.67;;
20411;SDS011;10365;52.578;8.138;2023-03-11T03:10:12;4.72;;;1.35;;
20411;SDS011;10365;52.578;8.138;2023-03-11T03:12:38;12.85;;;2.13;;
20411;SDS011;10365;52.578;8.138;2023-03-11T03:15:04;11.00;;;1.58;;
20411;SDS011;10365;52.578;8.138;2023-03-11T03:17:29;6.10;;;1.83;;
20411;SDS011;10365;52.578;8.138;2023-03-11T03:19:55;3.88;;;1.38;;
20411;SDS011;10365;52.578;8.138;2023-03-11T03:22:21;4.47;;;1.52;;
20411;SDS011;10365;52.578;8.138;2023-03-11T03:24:48;11.10;;;1.77;;
20411;SDS011;10365;52.578;8.138;2023-03-11T03:27:13;4.47;;;1.40;;
20411;SDS011;10365;52.578;8.138;2023-03-11T03:29:39;10.00;;;1.52;;
20411;SDS011;10365;52.578;8.138;2023-03-11T03:32:04;9.50;;;1.42;;
20411;SDS011;10365;52.578;8.138;2023-03-11T03:34:30;7.70;;;1.65;;
20411;SDS011;10365;52.578;8.138;2023-03-11T03:36:55;5.30;;;1.48;;
20411;SDS011;10365;52.578;8.138;2023-03-11T03:39:21;3.45;;;1.35;;
20411;SDS011;10365;52.578;8.138;2023-03-11T03:41:49;4.93;;;1.08;;
20411;SDS011;10365;52.578;8.138;2023-03-11T03:44:14;8.70;;;1.50;;
20411;SDS011;10365;52.578;8.138;2023-03-11T03:46:40;6.97;;;1.52;;
20411;SDS011;10365;52.578;8.138;2023-03-11T03:49:07;9.30;;;1.60;;
20411;SDS011;10365;52.578;8.138;2023-03-11T03:51:33;8.80;;;1.73;;
20411;SDS011;10365;52.578;8.138;2023-03-11T03:54:27;5.82;;;1.58;;
20411;SDS011;10365;52.578;8.138;2023-03-11T03:56:53;6.15;;;1.20;;
20411;SDS011;10365;52.578;8.138;2023-03-11T03:59:19;6.80;;;1.50;;
20411;SDS011;10365;52.578;8.138;2023-03-11T04:01:50;4.20;;;1.55;;
20411;SDS011;10365;52.578;8.138;2023-03-11T04:04:16;9.77;;;1.58;;
20411;SDS011;10365;52.578;8.138;2023-03-11T04:06:42;4.90;;;1.65;;
20411;SDS011;10365;52.578;8.138;2023-03-11T04:09:08;5.75;;;1.40;;
20411;SDS011;10365;52.578;8.138;2023-03-11T04:11:34;5.25;;;1.50;;
20411;SDS011;10365;52.578;8.138;2023-03-11T04:14:01;6.72;;;1.40;;
20411;SDS011;10365;52.578;8.138;2023-03-11T04:16:28;7.07;;;1.42;;
20411;SDS011;10365;52.578;8.138;2023-03-11T04:18:59;3.80;;;1.30;;
20411;SDS011;10365;52.578;8.138;2023-03-11T04:21:24;4.32;;;1.52;;
20411;SDS011;10365;52.578;8.138;2023-03-11T04:23:50;3.08;;;1.13;;
20411;SDS011;10365;52.578;8.138;2023-03-11T04:26:18;4.15;;;1.30;;
20411;SDS011;10365;52.578;8.138;2023-03-11T04:28:44;7.65;;;1.20;;
20411;SDS011;10365;52.578;8.138;2023-03-11T04:31:11;7.50;;;1.00;;
20411;SDS011;10365;52.578;8.138;2023-03-11T04:33:37;3.88;;;1.05;;
20411;SDS011;10365;52.578;8.138;2023-03-11T04:36:07;7.53;;;1.20;;
20411;SDS011;10365;52.578;8.138;2023-03-11T04:38:34;10.80;;;1.52;;
20411;SDS011;10365;52.578;8.138;2023-03-11T04:41:00;6.97;;;1.17;;
20411;SDS011;10365;52.578;8.138;2023-03-11T04:43:26;4.93;;;0.93;;
20411;SDS011;10365;52.578;8.138;2023-03-11T04:45:51;4.55;;;1.13;;
20411;SDS011;10365;52.578;8.138;2023-03-11T04:48:17;2.90;;;1.10;;
20411;SDS011;10365;52.578;8.138;2023-03-11T04:50:43;4.22;;;1.15;;
20411;SDS011;10365;52.578;8.138;2023-03-11T04:53:09;5.78;;;1.13;;
20411;SDS011;10365;52.578;8.138;2023-03-11T04:55:35;4.10;;;1.05;;
20411;SDS011;10365;52.578;8.138;2023-03-11T04:58:00;7.65;;;1.20;;
20411;SDS011;10365;52.578;8.138;2023-03-11T05:00:26;7.28;;;1.50;;
20411;SDS011;10365;52.578;8.138;2023-03-11T05:03:01;6.30;;;1.10;;
20411;SDS011;10365;52.578;8.138;2023-03-11T05:05:26;4.65;;;1.00;;
20411;SDS011;10365;52.578;8.138;2023-03-11T05:07:52;4.47;;;0.75;;
20411;SDS011;10365;52.578;8.138;2023-03-11T05:10:17;5.25;;;1.20;;
20411;SDS011;10365;52.578;8.138;2023-03-11T05:12:52;5.95;;;1.10;;
20411;SDS011;10365;52.578;8.138;2023-03-11T05:15:19;8.68;;;1.05;;
20411;SDS011;10365;52.578;8.138;2023-03-11T05:17:45;10.52;;;1.30;;
20411;SDS011;10365;52.578;8.138;2023-03-11T05:20:10;2.88;;;0.90;;
20411;SDS011;10365;52.578;8.138;2023-03-11T05:22:36;2.83;;;1.00;;
20411;SDS011;10365;52.578;8.138;2023-03-11T05:25:01;7.00;;;0.90;;
20411;SDS011;10365;52.578;8.138;2023-03-11T05:27:28;8.85;;;1.63;;
20411;SDS011;10365;52.578;8.138;2023-03-11T05:29:54;8.68;;;1.15;;
20411;SDS011;10365;52.578;8.138;2023-03-11T05:32:22;8.32;;;1.23;;
20411;SDS011;10365;52.578;8.138;2023-03-11T05:34:48;5.95;;;1.00;;
20411;SDS011;10365;52.578;8.138;2023-03-11T05:37:15;5.57;;;1.25;;
20411;SDS011;10365;52.578;8.138;2023-03-11T05:39:42;5.80;;;0.98;;
20411;SDS011;10365;52.578;8.138;2023-03-11T05:42:08;3.22;;;0.82;;
20411;SDS011;10365;52.578;8.138;2023-03-11T05:44:34;11.15;;;1.48;;
20411;SDS011;10365;52.578;8.138;2023-03-11T05:47:00;3.55;;;0.85;;
20411;SDS011;10365;52.578;8.138;2023-03-11T05:49:26;9.80;;;1.33;;
20411;SDS011;10365;52.578;8.138;2023-03-11T05:51:53;11.43;;;1.80;;
20411;SDS011;10365;52.578;8.138;2023-03-11T05:54:19;6.40;;;1.00;;
20411;SDS011;10365;52.578;8.138;2023-03-11T05:56:47;2.50;;;1.00;;
20411;SDS011;10365;52.578;8.138;2023-03-11T05:59:13;4.63;;;1.13;;
20411;SDS011;10365;52.578;8.138;2023-03-11T06:01:39;3.47;;;0.93;;
20411;SDS011;10365;52.578;8.138;2023-03-11T06:04:05;8.85;;;1.48;;
20411;SDS011;10365;52.578;8.138;2023-03-11T06:06:31;2.22;;;0.90;;
20411;SDS011;10365;52.578;8.138;2023-03-11T06:08:56;2.50;;;0.85;;
20411;SDS011;10365;52.578;8.138;2023-03-11T06:11:25;5.75;;;0.90;;
20411;SDS011;10365;52.578;8.138;2023-03-11T06:13:55;1.85;;;0.70;;
20411;SDS011;10365;52.578;8.138;2023-03-11T06:16:23;14.40;;;1.50;;
20411;SDS011;10365;52.578;8.138;2023-03-11T06:18:49;7.93;;;1.40;;
20411;SDS011;10365;52.578;8.138;2023-03-11T06:21:18;5.03;;;0.90;;
20411;SDS011;10365;52.578;8.138;2023-03-11T06:23:44;7.18;;;1.20;;
20411;SDS011;10365;52.578;8.138;2023-03-11T06:26:11;8.10;;;1.35;;
20411;SDS011;10365;52.578;8.138;2023-03-11T06:28:43;11.80;;;1.30;;
20411;SDS011;10365;52.578;8.138;2023-03-11T06:31:10;5.07;;;1.15;;
20411;SDS011;10365;52.578;8.138;2023-03-11T06:33:36;6.38;;;1.45;;
20411;SDS011;10365;52.578;8.138;2023-03-11T06:36:02;2.78;;;1.38;;
20411;SDS011;10365;52.578;8.138;2023-03-11T06:38:28;1.85;;;0.85;;
20411;SDS011;10365;52.578;8.138;2023-03-11T06:40:57;3.00;;;1.00;;
20411;SDS011;10365;52.578;8.138;2023-03-11T06:43:22;5.90;;;1.00;;
20411;SDS011;10365;52.578;8.138;2023-03-11T06:45:48;5.97;;;0.85;;
20411;SDS011;10365;52.578;8.138;2023-03-11T06:48:14;2.13;;;1.00;;
20411;SDS011;10365;52.578;8.138;2023-03-11T06:50:40;6.07;;;1.00;;
20411;SDS011;10365;52.578;8.138;2023-03-11T06:53:05;3.35;;;1.23;;
20411;SDS011;10365;52.578;8.138;2023-03-11T06:55:32;2.25;;;1.05;;
20411;SDS011;10365;52.578;8.138;2023-03-11T06:58:00;8.32;;;1.27;;
20411;SDS011;10365;52.578;8.138;2023-03-11T07:00:25;3.80;;;1.05;;
20411;SDS011;10365;52.578;8.138;2023-03-11T07:02:55;4.13;;;1.05;;
20411;SDS011;10365;52.578;8.138;2023-03-11T07:05:22;5.07;;;1.42;;
20411;SDS011;10365;52.578;8.138;2023-03-11T07:07:52;6.22;;;1.23;;
20411;SDS011;10365;52.578;8.138;2023-03-11T07:10:18;10.18;;;1.48;;
20411;SDS011;10365;52.578;8.138;2023-03-11T07:12:43;1.85;;;1.10;;
20411;SDS011;10365;52.578;8.138;2023-03-11T07:15:09;5.70;;;1.70;;
20411;SDS011;10365;52.578;8.138;2023-03-11T07:17:35;7.70;;;1.67;;
20411;SDS011;10365;52.578;8.138;2023-03-11T07:20:01;3.45;;;1.40;;
20411;SDS011;10365;52.578;8.138;2023-03-11T07:22:27;7.82;;;1.67;;
20411;SDS011;10365;52.578;8.138;2023-03-11T07:24:52;5.38;;;1.58;;
20411;SDS011;10365;52.578;8.138;2023-03-11T07:27:17;6.32;;;1.33;;
20411;SDS011;10365;52.578;8.138;2023-03-11T07:29:43;5.38;;;1.33;;
20411;SDS011;10365;52.578;8.138;2023-03-11T07:32:08;3.13;;;1.02;;
20411;SDS011;10365;52.578;8.138;2023-03-11T07:34:34;5.28;;;1.40;;
20411;SDS011;10365;52.578;8.138;2023-03-11T07:36:59;3.70;;;0.93;;
20411;SDS011;10365;52.578;8.138;2023-03-11T07:39:24;3.47;;;1.38;;
20411;SDS011;10365;52.578;8.138;2023-03-11T07:41:50;4.75;;;1.70;;
20411;SDS011;10365;52.578;8.138;2023-03-11T07:44:15;7.75;;;1.27;;
20411;SDS011;10365;52.578;8.138;2023-03-11T07:46:41;5.65;;;1.30;;
20411;SDS011;10365;52.578;8.138;2023-03-11T07:49:06;6.75;;;1.42;;
20411;SDS011;10365;52.578;8.138;2023-03-11T07:51:32;3.80;;;1.27;;
20411;SDS011;10365;52.578;8.138;2023-03-11T07:53:58;7.72;;;1.48;;
20411;SDS011;10365;52.578;8.138;2023-03-11T07:56:25;6.85;;;1.38;;
20411;SDS011;10365;52.578;8.138;2023-03-11T07:58:50;5.07;;;1.25;;
20411;SDS011;10365;52.578;8.138;2023-03-11T08:01:17;2.83;;;1.20;;
20411;SDS011;10365;52.578;8.138;2023-03-11T08:03:43;3.85;;;1.17;;
20411;SDS011;10365;52.578;8.138;2023-03-11T08:06:12;4.85;;;1.60;;
20411;SDS011;10365;52.578;8.138;2023-03-11T08:08:38;2.67;;;1.02;;
20411;SDS011;10365;52.578;8.138;2023-03-11T08:11:04;4.05;;;1.48;;
20411;SDS011;10365;52.578;8.138;2023-03-11T08:13:29;8.07;;;1.33;;
20411;SDS011;10365;52.578;8.138;2023-03-11T08:15:54;8.05;;;1.27;;
20411;SDS011;10365;52.578;8.138;2023-03-11T08:18:20;4.07;;;0.98;;
20411;SDS011;10365;52.578;8.138;2023-03-11T08:20:45;5.70;;;1.17;;
20411;SDS011;10365;52.578;8.138;2023-03-11T08:23:10;5.80;;;0.93;;
20411;SDS011;10365;52.578;8.138;2023-03-11T08:25:39;8.30;;;1.50;;
20411;SDS011;10365;52.578;8.138;2023-03-11T08:28:07;11.05;;;1.40;;
20411;SDS011;10365;52.578;8.138;2023-03-11T08:30:50;4.72;;;1.02;;
20411;SDS011;10365;52.578;8.138;2023-03-11T08:33:15;6.28;;;1.30;;
20411;SDS011;10365;52.578;8.138;2023-03-11T08:35:40;6.03;;;1.25;;
20411;SDS011;10365;52.578;8.138;2023-03-11T08:38:06;4.18;;;0.98;;
20411;SDS011;10365;52.578;8.138;2023-03-11T08:40:31;3.17;;;0.88;;
20411;SDS011;10365;52.578;8.138;2023-03-11T08:42:56;2.53;;;1.15;;
20411;SDS011;10365;52.578;8.138;2023-03-11T08:45:22;10.35;;;1.52;;
20411;SDS011;10365;52.578;8.138;2023-03-11T08:47:47;6.70;;;1.13;;
20411;SDS011;10365;52.578;8.138;2023-03-11T08:50:14;2.90;;;0.93;;
20411;SDS011;10365;52.578;8.138;2023-03-11T08:52:40;4.60;;;1.10;;
20411;SDS011;10365;52.578;8.138;2023-03-11T08:55:05;3.50;;;0.57;;
20411;SDS011;10365;52.578;8.138;2023-03-11T08:57:33;5.78;;;1.00;;
20411;SDS011;10365;52.578;8.138;2023-03-11T08:59:58;3.53;;;0.90;;
20411;SDS011;10365;52.578;8.138;2023-03-11T09:02:24;4.15;;;1.23;;
20411;SDS011;10365;52.578;8.138;2023-03-11T09:04:49;8.65;;;1.02;;
20411;SDS011;10365;52.578;8.138;2023-03-11T09:07:15;4.38;;;0.77;;
20411;SDS011;10365;52.578;8.138;2023-03-11T09:09:40;4.70;;;1.00;;
20411;SDS011;10365;52.578;8.138;2023-03-11T09:12:06;12.07;;;1.35;;
20411;SDS011;10365;52.578;8.138;2023-03-11T09:14:32;25.45;;;2.70;;
20411;SDS011;10365;52.578;8.138;2023-03-11T09:16:57;15.48;;;2.40;;
20411;SDS011;10365;52.578;8.138;2023-03-11T09:19:22;5.57;;;1.05;;
20411;SDS011;10365;52.578;8.138;2023-03-11T09:21:48;1.95;;;0.90;;
20411;SDS011;10365;52.578;8.138;2023-03-11T09:24:13;5.15;;;1.38;;
20411;SDS011;10365;52.578;8.138;2023-03-11T09:26:38;37.05;;;3.58;;
20411;SDS011;10365;52.578;8.138;2023-03-11T09:29:03;8.48;;;1.23;;
20411;SDS011;10365;52.578;8.138;2023-03-11T09:31:29;6.03;;;1.00;;
20411;SDS011;10365;52.578;8.138;2023-03-11T09:33:54;20.25;;;2.08;;
20411;SDS011;10365;52.578;8.138;2023-03-11T09:36:20;4.80;;;1.10;;
20411;SDS011;10365;52.578;8.138;2023-03-11T09:38:46;8.43;;;1.25;;
20411;SDS011;10365;52.578;8.138;2023-03-11T09:51:41;15.25;;;2.05;;
20411;SDS011;10365;52.578;8.138;2023-03-11T09:54:09;14.30;;;1.77;;
20411;SDS011;10365;52.578;8.138;2023-03-11T09:56:35;7.30;;;1.50;;
20411;SDS011;10365;52.578;8.138;2023-03-11T09:59:15;5.03;;;1.38;;
20411;SDS011;10365;52.578;8.138;2023-03-11T10:01:43;8.85;;;2.90;;
20411;SDS011;10365;52.578;8.138;2023-03-11T10:06:34;3.40;;;1.10;;
20411;SDS011;10365;52.578;8.138;2023-03-11T10:09:13;7.15;;;1.35;;
20411;SDS011;10365;52.578;8.138;2023-03-11T10:12:02;6.15;;;1.33;;
20411;SDS011;10365;52.578;8.138;2023-03-11T10:17:20;4.78;;;1.48;;
20411;SDS011;10365;52.578;8.138;2023-03-11T10:19:49;4.85;;;1.10;;
20411;SDS011;10365;52.578;8.138;2023-03-11T10:24:59;9.48;;;1.35;;
20411;SDS011;10365;52.578;8.138;2023-03-11T10:27:28;4.38;;;1.10;;
20411;SDS011;10365;52.578;8.138;2023-03-11T10:30:03;5.45;;;1.45;;
20411;SDS011;10365;52.578;8.138;2023-03-11T10:35:17;7.18;;;1.60;;
20411;SDS011;10365;52.578;8.138;2023-03-11T10:37:42;7.40;;;1.33;;
20411;SDS011;10365;52.578;8.138;2023-03-11T10:40:25;5.40;;;1.02;;
20411;SDS011;10365;52.578;8.138;2023-03-11T10:42:53;8.70;;;1.75;;
20411;SDS011;10365;52.578;8.138;2023-03-11T10:45:19;4.22;;;1.13;;
20411;SDS011;10365;52.578;8.138;2023-03-11T10:47:47;9.55;;;1.30;;
20411;SDS011;10365;52.578;8.138;2023-03-11T10:50:16;12.13;;;1.40;;
20411;SDS011;10365;52.578;8.138;2023-03-11T10:53:03;4.18;;;1.30;;
20411;SDS011;10365;52.578;8.138;2023-03-11T10:55:29;6.82;;;1.60;;
20411;SDS011;10365;52.578;8.138;2023-03-11T10:58:03;5.57;;;1.30;;
20411;SDS011;10365;52.578;8.138;2023-03-11T11:00:28;5.97;;;1.20;;
20411;SDS011;10365;52.578;8.138;2023-03-11T11:02:54;4.60;;;1.13;;
20411;SDS011;10365;52.578;8.138;2023-03-11T11:05:28;7.78;;;1.13;;
20411;SDS011;10365;52.578;8.138;2023-03-11T11:10:28;4.20;;;1.10;;
20411;SDS011;10365;52.578;8.138;2023-03-11T11:12:55;7.05;;;1.42;;
20411;SDS011;10365;52.578;8.138;2023-03-11T11:17:49;5.30;;;1.30;;
20411;SDS011;10365;52.578;8.138;2023-03-11T11:20:17;5.47;;;1.48;;
20411;SDS011;10365;52.578;8.138;2023-03-11T11:22:46;5.97;;;1.48;;
20411;SDS011;10365;52.578;8.138;2023-03-11T11:27:58;3.83;;;1.20;;
20411;SDS011;10365;52.578;8.138;2023-03-11T11:30:24;8.23;;;1.15;;
20411;SDS011;10365;52.578;8.138;2023-03-11T11:32:50;5.38;;;1.13;;
20411;SDS011;10365;52.578;8.138;2023-03-11T11:35:20;5.38;;;0.95;;
20411;SDS011;10365;52.578;8.138;2023-03-11T11:37:47;13.82;;;1.35;;
20411;SDS011;10365;52.578;8.138;2023-03-11T11:42:39;6.78;;;1.38;;
20411;SDS011;10365;52.578;8.138;2023-03-11T11:45:13;7.05;;;1.58;;
20411;SDS011;10365;52.578;8.138;2023-03-11T11:47:39;7.68;;;1.13;;
20411;SDS011;10365;52.578;8.138;2023-03-11T11:50:12;8.85;;;1.42;;
20411;SDS011;10365;52.578;8.138;2023-03-11T11:52:48;9.73;;;1.50;;
20411;SDS011;10365;52.578;8.138;2023-03-11T11:55:21;12.02;;;3.08;;
20411;SDS011;10365;52.578;8.138;2023-03-11T11:57:48;9.57;;;1.35;;
20411;SDS011;10365;52.578;8.138;2023-03-11T12:00:19;2.28;;;0.80;;
20411;SDS011;10365;52.578;8.138;2023-03-11T12:02:55;18.92;;;1.58;;
20411;SDS011;10365;52.578;8.138;2023-03-11T12:05:28;5.32;;;1.00;;
20411;SDS011;10365;52.578;8.138;2023-03-11T12:08:08;6.00;;;1.35;;
20411;SDS011;10365;52.578;8.138;2023-03-11T12:18:14;6.15;;;1.08;;
20411;SDS011;10365;52.578;8.138;2023-03-11T12:20:41;5.25;;;1.20;;
20411;SDS011;10365;52.578;8.138;2023-03-11T12:23:45;9.90;;;0.93;;
20411;SDS011;10365;52.578;8.138;2023-03-11T12:26:03;2.63;;;0.88;;
20411;SDS011;10365;52.578;8.138;2023-03-11T12:31:08;5.03;;;0.70;;
20411;SDS011;10365;52.578;8.138;2023-03-11T12:33:39;5.22;;;0.80;;
20411;SDS011;10365;52.578;8.138;2023-03-11T12:36:04;7.35;;;1.05;;
20411;SDS011;10365;52.578;8.138;2023-03-11T12:40:58;7.95;;;0.93;;
20411;SDS011;10365;52.578;8.138;2023-03-11T12:45:57;9.13;;;1.10;;
20411;SDS011;10365;52.578;8.138;2023-03-11T12:48:46;5.00;;;0.77;;
20411;SDS011;10365;52.578;8.138;2023-03-11T12:53:52;7.38;;;0.90;;
20411;SDS011;10365;52.578;8.138;2023-03-11T13:04:00;3.40;;;0.82;;
20411;SDS011;10365;52.578;8.138;2023-03-11T13:09:29;6.30;;;1.00;;
20411;SDS011;10365;52.578;8.138;2023-03-11T13:11:54;3.83;;;1.00;;
20411;SDS011;10365;52.578;8.138;2023-03-11T13:16:45;9.82;;;0.70;;
20411;SDS011;10365;52.578;8.138;2023-03-11T13:21:55;8.52;;;1.73;;
20411;SDS011;10365;52.578;8.138;2023-03-11T13:34:49;4.20;;;0.90;;
20411;SDS011;10365;52.578;8.138;2023-03-11T13:40:15;2.33;;;1.10;;
20411;SDS011;10365;52.578;8.138;2023-03-11T13:42:45;28.65;;;2.45;;
20411;SDS011;10365;52.578;8.138;2023-03-11T13:45:34;1.10;;;0.55;;
20411;SDS011;10365;52.578;8.138;2023-03-11T13:48:15;13.50;;;1.23;;
20411;SDS011;10365;52.578;8.138;2023-03-11T13:50:49;2.90;;;0.70;;
20411;SDS011;10365;52.578;8.138;2023-03-11T13:53:22;6.38;;;1.08;;
20411;SDS011;10365;52.578;8.138;2023-03-11T13:55:50;3.03;;;0.80;;
20411;SDS011;10365;52.578;8.138;2023-03-11T13:58:18;7.57;;;0.80;;
20411;SDS011;10365;52.578;8.138;2023-03-11T14:00:51;5.07;;;1.05;;
20411;SDS011;10365;52.578;8.138;2023-03-11T14:03:17;6.07;;;0.77;;
20411;SDS011;10365;52.578;8.138;2023-03-11T14:05:48;9.20;;;1.30;;
20411;SDS011;10365;52.578;8.138;2023-03-11T14:10:53;3.97;;;0.88;;
20411;SDS011;10365;52.578;8.138;2023-03-11T14:13:19;7.35;;;1.55;;
20411;SDS011;10365;52.578;8.138;2023-03-11T14:15:46;7.15;;;1.02;;
20411;SDS011;10365;52.578;8.138;2023-03-11T14:18:33;5.30;;;1.30;;
20411;SDS011;10365;52.578;8.138;2023-03-11T14:20:59;5.53;;;1.05;;
20411;SDS011;10365;52.578;8.138;2023-03-11T14:23:27;5.72;;;1.40;;
20411;SDS011;10365;52.578;8.138;2023-03-11T14:25:59;2.95;;;0.75;;
20411;SDS011;10365;52.578;8.138;2023-03-11T14:28:25;5.03;;;1.50;;
20411;SDS011;10365;52.578;8.138;2023-03-11T14:30:56;3.70;;;0.65;;
20411;SDS011;10365;52.578;8.138;2023-03-11T14:33:22;4.65;;;1.05;;
20411;SDS011;10365;52.578;8.138;2023-03-11T14:35:55;2.42;;;0.70;;
20411;SDS011;10365;52.578;8.138;2023-03-11T14:38:31;6.95;;;0.88;;
20411;SDS011;10365;52.578;8.138;2023-03-11T14:40:57;3.80;;;0.77;;
20411;SDS011;10365;52.578;8.138;2023-03-11T14:43:23;6.07;;;0.80;;
20411;SDS011;10365;52.578;8.138;2023-03-11T14:45:50;1.83;;;0.55;;
20411;SDS011;10365;52.578;8.138;2023-03-11T14:50:50;6.90;;;1.00;;
20411;SDS011;10365;52.578;8.138;2023-03-11T14:53:26;3.58;;;0.77;;
20411;SDS011;10365;52.578;8.138;2023-03-11T14:55:57;2.80;;;0.80;;
20411;SDS011;10365;52.578;8.138;2023-03-11T15:00:57;5.28;;;0.90;;
20411;SDS011;10365;52.578;8.138;2023-03-11T15:03:25;9.13;;;1.13;;
20411;SDS011;10365;52.578;8.138;2023-03-11T15:05:51;7.25;;;1.10;;
20411;SDS011;10365;52.578;8.138;2023-03-11T15:08:18;3.83;;;0.85;;
20411;SDS011;10365;52.578;8.138;2023-03-11T15:13:45;7.78;;;1.17;;
20411;SDS011;10365;52.578;8.138;2023-03-11T15:18:49;2.63;;;0.77;;
20411;SDS011;10365;52.578;8.138;2023-03-11T15:21:16;1.13;;;0.70;;
20411;SDS011;10365;52.578;8.138;2023-03-11T15:26:23;4.57;;;0.77;;
20411;SDS011;10365;52.578;8.138;2023-03-11T15:31:28;7.07;;;1.17;;
20411;SDS011;10365;52.578;8.138;2023-03-11T15:34:06;2.63;;;0.80;;
20411;SDS011;10365;52.578;8.138;2023-03-11T15:36:32;3.10;;;0.80;;
20411;SDS011;10365;52.578;8.138;2023-03-11T15:39:05;5.45;;;1.58;;
20411;SDS011;10365;52.578;8.138;2023-03-11T15:41:30;4.40;;;1.20;;
20411;SDS011;10365;52.578;8.138;2023-03-11T15:43:56;5.32;;;1.15;;
20411;SDS011;10365;52.578;8.138;2023-03-11T15:46:26;2.78;;;0.80;;
20411;SDS011;10365;52.578;8.138;2023-03-11T15:48:51;5.72;;;1.00;;
20411;SDS011;10365;52.578;8.138;2023-03-11T15:51:17;3.70;;;0.70;;
20411;SDS011;10365;52.578;8.138;2023-03-11T15:53:43;4.45;;;0.90;;
20411;SDS011;10365;52.578;8.138;2023-03-11T15:56:10;3.05;;;1.00;;
20411;SDS011;10365;52.578;8.138;2023-03-11T15:58:37;5.63;;;1.45;;
20411;SDS011;10365;52.578;8.138;2023-03-11T16:01:02;3.53;;;1.20;;
20411;SDS011;10365;52.578;8.138;2023-03-11T16:03:28;5.78;;;1.00;;
20411;SDS011;10365;52.578;8.138;2023-03-11T16:05:54;2.95;;;0.70;;
20411;SDS011;10365;52.578;8.138;2023-03-11T16:08:19;6.88;;;0.68;;
20411;SDS011;10365;52.578;8.138;2023-03-11T16:10:44;4.78;;;0.93;;
20411;SDS011;10365;52.578;8.138;2023-03-11T16:13:13;5.68;;;1.27;;
20411;SDS011;10365;52.578;8.138;2023-03-11T16:15:39;5.05;;;0.90;;
20411;SDS011;10365;52.578;8.138;2023-03-11T16:18:05;4.93;;;0.98;;
20411;SDS011;10365;52.578;8.138;2023-03-11T16:20:39;5.82;;;0.77;;
20411;SDS011;10365;52.578;8.138;2023-03-11T16:23:05;2.20;;;0.60;;
20411;SDS011;10365;52.578;8.138;2023-03-11T16:25:32;4.60;;;1.05;;
20411;SDS011;10365;52.578;8.138;2023-03-11T16:27:59;4.85;;;0.77;;